Time;durP1;ratioP1;P1;durP2;ratioP2;P2;SDS_P1;SDS_P2;PMS_P1;PMS_P2;Temp;Humidity;BMP_temperature;BMP_pressure;BME280_temperature;BME280_humidity;BME280_pressure;Samples;Min_cycle;Max_cycle;Signal;HPM_P1;HPM_P2
2022/06/13 00:00:54;;;;;;;;;;;20.20;57.10;;;;;;5162837;27;21419;-44
2022/06/13 00:03:20;;;;;;;;;;;19.80;56.20;;;;;;5153191;27;19923;-49
2022/06/13 00:05:46;;;;;;;;;;;19.70;55.30;;;;;;5164539;27;20482;-50
2022/06/13 00:08:11;;;;;;;;;;;20.20;60.70;;;;;;5171566;27;20266;-49
2022/06/13 00:10:37;;;;;;;;;;;20.90;64.00;;;;;;5166525;27;19923;-45
2022/06/13 00:13:03;;;;;;;;;;;21.50;64.20;;;;;;5166764;27;19938;-47
2022/06/13 00:15:29;;;;;;;;;;;21.30;61.10;;;;;;5172200;27;20025;-45
2022/06/13 00:17:55;;;;;;;;;;;20.40;59.50;;;;;;5166801;27;19923;-45
2022/06/13 00:20:21;;;;;;;;;;;20.20;57.20;;;;;;5166451;27;19991;-45
2022/06/13 00:22:46;;;;;;;;;;;19.90;56.30;;;;;;5170024;27;19929;-49
2022/06/13 00:25:12;;;;;;;;;;;19.80;56.40;;;;;;5164836;27;20308;-46
2022/06/13 00:27:38;;;;;;;;;;;20.40;62.90;;;;;;5171236;27;19922;-46
2022/06/13 00:30:05;;;;;;;;;;;21.10;64.70;;;;;;5166294;27;20283;-46
2022/06/13 00:32:33;;;;;;;;;;;21.70;63.50;;;;;;5166314;27;19929;-47
2022/06/13 00:34:59;;;;;;;;;;;20.80;60.50;;;;;;5171704;27;19935;-46
2022/06/13 00:37:25;;;;;;;;;;;20.20;58.80;;;;;;5166080;27;19923;-47
2022/06/13 00:39:51;;;;;;;;;;;19.80;57.30;;;;;;5166218;27;20109;-47
2022/06/13 00:42:17;;;;;;;;;;;19.80;55.80;;;;;;5168999;27;19922;-46
2022/06/13 00:45:00;;;;;;;;;;;19.90;57.30;;;;;;5165472;27;19929;-47
2022/06/13 00:47:26;;;;;;;;;;;20.50;63.50;;;;;;5147101;27;20013;-49
2022/06/13 00:49:52;;;;;;;;;;;21.30;64.60;;;;;;5152802;27;19944;-46
2022/06/13 00:52:20;;;;;;;;;;;21.50;62.40;;;;;;5165724;27;19923;-45
2022/06/13 00:54:46;;;;;;;;;;;20.70;59.60;;;;;;5171404;27;19949;-49
2022/06/13 00:57:12;;;;;;;;;;;20.20;58.30;;;;;;5165665;27;20335;-46
2022/06/13 00:59:39;;;;;;;;;;;20.00;56.30;;;;;;5164226;27;20013;-47
2022/06/13 01:02:06;;;;;;;;;;;19.80;55.70;;;;;;5169633;27;20070;-46
2022/06/13 01:04:32;;;;;;;;;;;20.10;59.80;;;;;;5165132;27;19934;-47
2022/06/13 01:06:58;;;;;;;;;;;20.80;64.40;;;;;;5165319;27;19922;-46
2022/06/13 01:12:09;;;;;;;;;;;21.70;63.00;;;;;;5165803;27;19942;-46
2022/06/13 01:14:48;;;;;;;;;;;20.60;60.00;;;;;;5164572;27;20764;-46
2022/06/13 01:17:25;;;;;;;;;;;20.20;58.30;;;;;;5150009;27;20388;-47
2022/06/13 01:20:01;;;;;;;;;;;19.90;56.80;;;;;;5163813;27;20028;-49
2022/06/13 01:22:43;;;;;;;;;;;19.70;55.80;;;;;;5144529;27;20802;-45
2022/06/13 01:25:09;;;;;;;;;;;19.70;55.20;;;;;;5170645;27;19930;-47
2022/06/13 01:27:58;;;;;;;;;;;20.40;62.20;;;;;;5146490;27;20300;-48
2022/06/13 01:30:46;;;;;;;;;;;21.10;64.60;;;;;;5146515;27;19974;-46
2022/06/13 01:33:16;;;;;;;;;;;21.70;64.70;;;;;;5152157;27;19929;-45
2022/06/13 01:36:01;;;;;;;;;;;20.80;60.70;;;;;;5163895;27;19927;-48
2022/06/13 01:38:37;;;;;;;;;;;20.30;58.60;;;;;;5163521;27;19976;-44
2022/06/13 01:41:27;;;;;;;;;;;20.00;56.80;;;;;;5170029;27;19927;-47
2022/06/13 01:43:54;;;;;;;;;;;19.80;55.90;;;;;;5150779;27;20374;-47
2022/06/13 01:46:20;;;;;;;;;;;20.40;62.20;;;;;;5145563;27;20062;-52
2022/06/13 01:48:49;;;;;;;;;;;21.00;64.90;;;;;;5170569;27;20301;-45
2022/06/13 01:51:18;;;;;;;;;;;21.70;64.70;;;;;;5146075;27;20434;-46
2022/06/13 01:53:55;;;;;;;;;;;21.10;61.60;;;;;;5163879;27;20021;-49
2022/06/13 01:56:23;;;;;;;;;;;20.30;59.70;;;;;;5149615;27;20025;-47
2022/06/13 01:58:57;;;;;;;;;;;20.00;57.40;;;;;;5145160;27;20322;-44
2022/06/13 02:01:43;;;;;;;;;;;19.80;56.20;;;;;;5164210;27;19926;-46
2022/06/13 02:04:09;;;;;;;;;;;19.80;55.40;;;;;;5170062;27;19922;-45
2022/06/13 02:06:37;;;;;;;;;;;20.00;59.30;;;;;;5145739;27;19986;-47
2022/06/13 02:09:07;;;;;;;;;;;20.70;64.20;;;;;;5145920;27;19978;-47
2022/06/13 02:11:34;;;;;;;;;;;21.40;65.10;;;;;;5169651;27;19927;-46
2022/06/13 02:14:17;;;;;;;;;;;21.60;63.50;;;;;;5161913;27;19923;-45
2022/06/13 02:16:51;;;;;;;;;;;20.70;60.50;;;;;;5141018;27;20489;-45
2022/06/13 02:19:20;;;;;;;;;;;20.20;58.30;;;;;;5132310;27;19929;-45
2022/06/13 02:21:50;;;;;;;;;;;19.90;56.70;;;;;;5163955;27;20398;-45
2022/06/13 02:24:19;;;;;;;;;;;19.80;55.50;;;;;;5163663;27;19923;-46
2022/06/13 02:26:45;;;;;;;;;;;20.30;61.60;;;;;;5169284;27;20022;-45
2022/06/13 02:29:15;;;;;;;;;;;20.90;64.80;;;;;;5163797;27;20030;-45
2022/06/13 02:31:44;;;;;;;;;;;21.70;64.60;;;;;;5165492;27;19974;-56
2022/06/13 02:34:12;;;;;;;;;;;21.10;61.40;;;;;;5147541;27;19931;-46
2022/06/13 02:36:38;;;;;;;;;;;20.30;59.00;;;;;;5163396;27;19956;-46
2022/06/13 02:39:05;;;;;;;;;;;20.10;57.50;;;;;;5169329;27;20370;-48
2022/06/13 02:41:35;;;;;;;;;;;19.80;56.50;;;;;;5163587;27;19928;-45
2022/06/13 02:44:05;;;;;;;;;;;19.80;55.70;;;;;;5163938;27;19945;-45
2022/06/13 02:46:33;;;;;;;;;;;20.40;62.60;;;;;;5148604;27;19937;-46
2022/06/13 02:49:19;;;;;;;;;;;21.10;64.70;;;;;;5162500;27;20009;-47
2022/06/13 02:51:47;;;;;;;;;;;21.70;63.90;;;;;;5161178;27;19929;-48
2022/06/13 02:54:14;;;;;;;;;;;20.70;60.30;;;;;;5149390;27;19926;-48
2022/06/13 02:59:43;;;;;;;;;;;19.80;56.80;;;;;;5161410;27;19923;-46
2022/06/13 03:02:08;;;;;;;;;;;19.70;55.80;;;;;;5168810;27;20539;-46
2022/06/13 03:04:35;;;;;;;;;;;20.30;62.50;;;;;;5142883;27;19930;-45
2022/06/13 03:07:15;;;;;;;;;;;21.10;64.40;;;;;;5162730;27;20377;-46
2022/06/13 03:09:41;;;;;;;;;;;21.80;63.60;;;;;;5148180;27;20410;-47
2022/06/13 03:12:14;;;;;;;;;;;20.90;60.10;;;;;;5144099;27;19927;-47
2022/06/13 03:14:46;;;;;;;;;;;20.30;58.30;;;;;;5144339;27;19927;-47
2022/06/13 03:17:14;;;;;;;;;;;20.10;56.50;;;;;;5168575;27;19923;-48
2022/06/13 03:19:40;;;;;;;;;;;19.80;55.30;;;;;;5143448;27;19979;-45
2022/06/13 03:22:14;;;;;;;;;;;19.70;54.80;;;;;;5164357;27;19926;-57
2022/06/13 03:24:48;;;;;;;;;;;20.30;59.90;;;;;;5168513;27;20333;-45
2022/06/13 03:27:17;;;;;;;;;;;20.90;63.10;;;;;;5160700;27;19927;-50
2022/06/13 03:29:47;;;;;;;;;;;21.60;63.00;;;;;;5166336;27;20411;-54
2022/06/13 03:32:17;;;;;;;;;;;21.30;60.30;;;;;;5165940;27;19923;-46
2022/06/13 03:34:45;;;;;;;;;;;20.50;58.20;;;;;;5162835;27;19927;-46
2022/06/13 03:37:17;;;;;;;;;;;20.00;56.90;;;;;;5149581;27;19923;-49
2022/06/13 03:39:45;;;;;;;;;;;19.80;55.70;;;;;;5144456;27;19935;-47
2022/06/13 03:42:13;;;;;;;;;;;19.80;54.70;;;;;;5162759;27;19927;-48
2022/06/13 03:44:41;;;;;;;;;;;20.10;60.00;;;;;;5148007;27;20002;-50
2022/06/13 03:47:34;;;;;;;;;;;20.80;62.50;;;;;;5161226;27;19972;-49
2022/06/13 03:50:11;;;;;;;;;;;21.50;62.10;;;;;;5157182;27;20308;-45
2022/06/13 03:52:39;;;;;;;;;;;21.00;59.30;;;;;;5147566;27;20281;-47
2022/06/13 03:55:10;;;;;;;;;;;20.40;57.10;;;;;;5143838;27;19927;-49
2022/06/13 03:57:38;;;;;;;;;;;20.00;55.80;;;;;;5144397;27;19927;-44
2022/06/13 04:00:08;;;;;;;;;;;19.80;55.10;;;;;;5167770;27;19926;-47
2022/06/13 04:02:34;;;;;;;;;;;20.30;59.00;;;;;;5161412;27;19922;-49
2022/06/13 04:05:00;;;;;;;;;;;20.90;61.60;;;;;;5142118;27;20348;-49
2022/06/13 04:07:27;;;;;;;;;;;21.60;60.70;;;;;;5167414;27;19923;-46
2022/06/13 04:09:54;;;;;;;;;;;21.10;58.00;;;;;;5162408;27;20515;-50
2022/06/13 04:12:41;;;;;;;;;;;20.30;57.10;;;;;;5166019;27;19929;-55
2022/06/13 04:15:07;;;;;;;;;;;20.10;55.50;;;;;;5167825;27;19931;-47
2022/06/13 04:17:42;;;;;;;;;;;19.80;54.70;;;;;;5162342;27;19922;-47
2022/06/13 04:20:14;;;;;;;;;;;19.80;53.60;;;;;;5164272;27;20120;-55
2022/06/13 04:22:42;;;;;;;;;;;20.30;59.30;;;;;;5165048;27;19927;-46
2022/06/13 04:25:11;;;;;;;;;;;21.00;61.00;;;;;;5161647;27;20545;-45
2022/06/13 04:27:40;;;;;;;;;;;21.60;59.90;;;;;;5167499;27;19927;-47
2022/06/13 04:30:16;;;;;;;;;;;20.90;57.70;;;;;;5162145;27;20342;-45
2022/06/13 04:32:47;;;;;;;;;;;20.10;56.60;;;;;;5143576;27;20017;-46
2022/06/13 04:35:12;;;;;;;;;;;19.90;55.00;;;;;;5167820;27;20306;-47
2022/06/13 04:37:39;;;;;;;;;;;19.70;54.00;;;;;;5143161;27;19922;-48
2022/06/13 04:40:05;;;;;;;;;;;20.30;58.90;;;;;;5141749;27;19954;-47
2022/06/13 04:42:32;;;;;;;;;;;21.00;60.30;;;;;;5147802;27;20042;-45
2022/06/13 04:44:58;;;;;;;;;;;21.70;59.00;;;;;;5161978;27;19926;-46
2022/06/13 04:47:24;;;;;;;;;;;21.00;57.40;;;;;;5143040;27;19922;-45
2022/06/13 04:49:51;;;;;;;;;;;20.30;55.90;;;;;;5152461;27;20405;-46
2022/06/13 04:52:17;;;;;;;;;;;19.90;54.90;;;;;;5165899;27;20214;-47
2022/06/13 04:54:47;;;;;;;;;;;19.80;53.90;;;;;;5171304;27;20041;-49
2022/06/13 04:57:14;;;;;;;;;;;20.20;58.60;;;;;;5165334;27;19933;-47
2022/06/13 04:59:42;;;;;;;;;;;21.00;59.80;;;;;;5144319;27;20017;-46
2022/06/13 05:02:11;;;;;;;;;;;21.80;58.40;;;;;;5170555;27;19958;-49
2022/06/13 05:04:37;;;;;;;;;;;20.80;56.90;;;;;;5147173;27;19922;-47
2022/06/13 05:07:13;;;;;;;;;;;20.20;55.70;;;;;;5165857;27;20297;-47
2022/06/13 05:09:41;;;;;;;;;;;20.00;54.50;;;;;;5171085;27;19961;-47
2022/06/13 05:12:12;;;;;;;;;;;19.60;54.00;;;;;;5147159;27;19923;-46
2022/06/13 05:14:43;;;;;;;;;;;20.20;58.00;;;;;;5165522;27;20180;-46
2022/06/13 05:17:09;;;;;;;;;;;20.90;59.40;;;;;;5168770;27;20002;-45
2022/06/13 05:19:41;;;;;;;;;;;21.70;58.00;;;;;;5164285;27;20347;-47
2022/06/13 05:22:13;;;;;;;;;;;20.90;56.40;;;;;;5165791;27;19923;-56
2022/06/13 05:24:45;;;;;;;;;;;20.30;55.30;;;;;;5170753;27;20389;-46
2022/06/13 05:27:11;;;;;;;;;;;19.90;54.40;;;;;;5165328;27;19931;-46
2022/06/13 05:29:37;;;;;;;;;;;19.70;54.70;;;;;;5170776;27;20005;-47
2022/06/13 05:32:05;;;;;;;;;;;20.40;59.10;;;;;;5165022;27;20433;-46
2022/06/13 05:34:35;;;;;;;;;;;21.30;58.60;;;;;;5164135;27;20370;-45
2022/06/13 05:37:01;;;;;;;;;;;21.60;56.70;;;;;;5147940;27;19927;-44
2022/06/13 05:39:27;;;;;;;;;;;20.40;56.00;;;;;;5164431;27;19931;-46
2022/06/13 05:41:52;;;;;;;;;;;20.00;55.00;;;;;;5164575;27;19983;-49
2022/06/13 05:44:18;;;;;;;;;;;19.80;53.90;;;;;;5170550;27;19923;-46
2022/06/13 05:46:44;;;;;;;;;;;20.00;57.20;;;;;;5164816;27;19923;-48
2022/06/13 05:49:11;;;;;;;;;;;20.90;58.70;;;;;;5166628;27;19929;-54
2022/06/13 05:51:36;;;;;;;;;;;21.60;57.20;;;;;;5149128;27;20022;-48
2022/06/13 05:54:02;;;;;;;;;;;21.00;55.80;;;;;;5162519;27;19927;-47
2022/06/13 05:56:28;;;;;;;;;;;20.30;55.00;;;;;;5169239;27;19931;-46
2022/06/13 05:58:54;;;;;;;;;;;19.80;54.40;;;;;;5145384;27;19934;-46
2022/06/13 06:01:20;;;;;;;;;;;19.60;53.80;;;;;;5164407;27;19922;-47
2022/06/13 06:03:45;;;;;;;;;;;20.00;57.10;;;;;;5170068;27;20378;-48
2022/06/13 06:06:24;;;;;;;;;;;20.90;58.20;;;;;;5146122;27;19922;-44
2022/06/13 06:08:50;;;;;;;;;;;21.70;56.90;;;;;;5164374;27;20278;-46
2022/06/13 06:11:16;;;;;;;;;;;21.10;55.30;;;;;;5150040;27;19937;-49
2022/06/13 06:13:42;;;;;;;;;;;20.20;55.10;;;;;;5162516;27;20015;-45
2022/06/13 06:16:09;;;;;;;;;;;20.00;53.80;;;;;;5168869;27;20343;-52
2022/06/13 06:18:34;;;;;;;;;;;19.60;53.60;;;;;;5146346;27;19929;-45
2022/06/13 06:21:00;;;;;;;;;;;19.80;53.50;;;;;;5164280;27;19922;-46
2022/06/13 06:23:26;;;;;;;;;;;20.50;57.40;;;;;;5169555;27;19927;-46
2022/06/13 06:25:52;;;;;;;;;;;21.30;57.20;;;;;;5164384;27;19923;-45
2022/06/13 06:28:19;;;;;;;;;;;21.80;55.20;;;;;;5163620;27;20393;-46
2022/06/13 06:30:44;;;;;;;;;;;20.50;55.50;;;;;;5167044;27;20287;-46
2022/06/13 06:33:10;;;;;;;;;;;20.20;54.20;;;;;;5162872;27;19977;-46
2022/06/13 06:35:36;;;;;;;;;;;19.90;53.30;;;;;;5146976;27;20030;-51
2022/06/13 06:38:02;;;;;;;;;;;19.80;52.70;;;;;;5148817;27;19933;-46
2022/06/13 06:40:27;;;;;;;;;;;20.20;56.60;;;;;;5163616;27;19930;-50
2022/06/13 06:42:53;;;;;;;;;;;20.90;57.30;;;;;;5169357;27;19923;-46
2022/06/13 06:45:19;;;;;;;;;;;21.70;55.70;;;;;;5163738;27;20005;-45
2022/06/13 06:47:45;;;;;;;;;;;20.90;54.90;;;;;;5143041;27;19927;-46
2022/06/13 06:50:12;;;;;;;;;;;20.20;54.30;;;;;;5166960;27;19926;-47
2022/06/13 06:52:38;;;;;;;;;;;19.80;53.70;;;;;;5162916;27;20009;-46
2022/06/13 07:00:33;;;;;;;;;;;21.30;55.90;;;;;;5163470;27;19933;-47
2022/06/13 07:02:58;;;;;;;;;;;21.10;54.40;;;;;;5163347;27;19927;-47
2022/06/13 07:05:24;;;;;;;;;;;20.30;54.10;;;;;;5168792;27;19975;-48
2022/06/13 07:07:50;;;;;;;;;;;19.80;53.20;;;;;;5160880;27;19938;-48
2022/06/13 07:10:16;;;;;;;;;;;19.90;55.90;;;;;;5167596;27;20001;-50
2022/06/13 07:12:42;;;;;;;;;;;20.80;56.70;;;;;;5162492;27;20347;-46
2022/06/13 07:15:09;;;;;;;;;;;21.60;54.90;;;;;;5163199;27;19926;-45
2022/06/13 07:17:35;;;;;;;;;;;20.90;54.00;;;;;;5168699;27;19923;-45
2022/06/13 07:20:01;;;;;;;;;;;20.30;53.60;;;;;;5163000;27;20372;-45
2022/06/13 07:22:27;;;;;;;;;;;19.80;53.20;;;;;;5162729;27;19922;-47
2022/06/13 07:24:52;;;;;;;;;;;19.60;52.50;;;;;;5167191;27;20002;-47
2022/06/13 07:27:18;;;;;;;;;;;20.20;56.30;;;;;;5161323;27;19934;-46
2022/06/13 07:29:44;;;;;;;;;;;21.10;55.80;;;;;;5166136;27;19923;-55
2022/06/13 07:32:17;;;;;;;;;;;21.70;53.90;;;;;;5164894;27;19947;-46
2022/06/13 07:34:44;;;;;;;;;;;20.40;54.00;;;;;;5144349;27;20416;-46
2022/06/13 07:37:11;;;;;;;;;;;20.00;53.30;;;;;;5168291;27;19967;-45
2022/06/13 07:39:37;;;;;;;;;;;19.80;52.60;;;;;;5162721;27;19923;-46
2022/06/13 07:42:03;;;;;;;;;;;19.80;51.90;;;;;;5162610;27;19926;-47
2022/06/13 07:44:30;;;;;;;;;;;20.40;55.70;;;;;;5147067;27;19933;-49
2022/06/13 07:46:56;;;;;;;;;;;21.20;55.50;;;;;;5161808;27;19948;-51
2022/06/13 07:49:21;;;;;;;;;;;21.60;53.40;;;;;;5162204;27;19922;-49
2022/06/13 07:51:47;;;;;;;;;;;20.60;53.70;;;;;;5168172;27;19937;-46
2022/06/13 07:54:13;;;;;;;;;;;20.20;53.00;;;;;;5162606;27;19923;-45
2022/06/13 07:56:39;;;;;;;;;;;19.80;52.40;;;;;;5168338;27;19926;-49
2022/06/13 07:59:05;;;;;;;;;;;19.80;52.00;;;;;;5162571;27;19923;-47
2022/06/13 08:01:31;;;;;;;;;;;20.10;55.50;;;;;;5140784;27;19923;-47
2022/06/13 08:03:57;;;;;;;;;;;21.10;55.30;;;;;;5147395;27;20305;-49
2022/06/13 08:06:25;;;;;;;;;;;21.80;53.60;;;;;;5161887;27;19923;-45
2022/06/13 08:08:50;;;;;;;;;;;20.80;53.30;;;;;;5162143;27;20442;-45
2022/06/13 08:11:17;;;;;;;;;;;20.30;52.80;;;;;;5147523;27;19970;-45
2022/06/13 08:13:43;;;;;;;;;;;20.00;52.20;;;;;;5162364;27;19941;-45
2022/06/13 08:16:09;;;;;;;;;;;19.70;52.00;;;;;;5167286;27;20294;-53
2022/06/13 08:18:35;;;;;;;;;;;20.00;54.50;;;;;;5163803;27;20009;-45
2022/06/13 08:21:01;;;;;;;;;;;21.00;55.00;;;;;;5160075;27;19927;-47
2022/06/13 08:23:27;;;;;;;;;;;21.80;53.20;;;;;;5167919;27;19923;-51
2022/06/13 08:25:54;;;;;;;;;;;20.70;53.30;;;;;;5165539;27;21293;-46
2022/06/13 08:28:20;;;;;;;;;;;20.00;53.30;;;;;;5166282;27;20315;-47
2022/06/13 08:30:46;;;;;;;;;;;19.80;52.30;;;;;;5171974;27;19922;-46
2022/06/13 08:33:11;;;;;;;;;;;19.90;54.00;;;;;;5166622;27;19929;-45
2022/06/13 08:35:37;;;;;;;;;;;20.80;54.90;;;;;;5167611;27;19922;-53
2022/06/13 08:38:03;;;;;;;;;;;21.70;53.00;;;;;;5169583;27;19930;-49
2022/06/13 08:40:33;;;;;;;;;;;21.00;52.60;;;;;;5164007;27;19931;-48
2022/06/13 08:43:28;;;;;;;;;;;20.20;52.70;;;;;;5170699;27;19971;-47
2022/06/13 08:45:58;;;;;;;;;;;20.00;51.80;;;;;;5148404;27;19927;-46
2022/06/13 08:48:25;;;;;;;;;;;19.80;53.40;;;;;;5166117;27;19930;-49
2022/06/13 08:50:59;;;;;;;;;;;20.80;54.90;;;;;;5171564;27;19927;-49
2022/06/13 08:53:48;;;;;;;;;;;21.70;52.90;;;;;;5167080;27;19927;-52
2022/06/13 08:56:14;;;;;;;;;;;20.80;52.90;;;;;;5151403;27;20296;-47
2022/06/13 08:58:49;;;;;;;;;;;20.30;52.30;;;;;;5150463;27;19973;-48
2022/06/13 09:01:21;;;;;;;;;;;20.00;51.90;;;;;;5168686;27;19929;-48
2022/06/13 09:03:49;;;;;;;;;;;19.90;51.30;;;;;;5165311;27;19930;-46
2022/06/13 09:06:22;;;;;;;;;;;20.20;54.30;;;;;;5171090;27;19927;-47
2022/06/13 09:08:52;;;;;;;;;;;21.20;53.90;;;;;;5165511;27;19933;-48
2022/06/13 09:11:21;;;;;;;;;;;21.80;51.90;;;;;;5146755;27;20322;-46
2022/06/13 09:13:56;;;;;;;;;;;20.70;52.30;;;;;;5170906;27;19922;-45
2022/06/13 09:16:27;;;;;;;;;;;20.20;52.10;;;;;;5162951;27;19933;-45
2022/06/13 09:18:58;;;;;;;;;;;19.80;51.80;;;;;;5164291;27;20882;-48
2022/06/13 09:21:44;;;;;;;;;;;19.90;52.90;;;;;;5170534;27;20408;-46
2022/06/13 09:24:12;;;;;;;;;;;20.80;54.30;;;;;;5164550;27;19923;-46
2022/06/13 09:26:48;;;;;;;;;;;21.80;52.20;;;;;;5165237;27;19927;-46
2022/06/13 09:29:25;;;;;;;;;;;20.70;52.60;;;;;;5170934;27;20336;-47
2022/06/13 09:31:56;;;;;;;;;;;20.20;52.20;;;;;;5165006;27;19999;-45
2022/06/13 09:34:27;;;;;;;;;;;19.90;51.80;;;;;;5162307;27;20289;-47
2022/06/13 09:36:57;;;;;;;;;;;20.10;53.40;;;;;;5169285;27;20071;-48
2022/06/13 09:39:23;;;;;;;;;;;21.10;53.40;;;;;;5164449;27;19927;-46
2022/06/13 09:41:56;;;;;;;;;;;21.80;51.30;;;;;;5164635;27;20410;-48
2022/06/13 09:44:22;;;;;;;;;;;20.60;52.20;;;;;;5170448;27;19923;-47
2022/06/13 09:46:49;;;;;;;;;;;20.00;52.10;;;;;;5164822;27;19926;-45
2022/06/13 09:49:29;;;;;;;;;;;20.00;51.10;;;;;;5164797;27;19923;-47
2022/06/13 09:52:02;;;;;;;;;;;19.70;51.10;;;;;;5150453;27;19935;-47
2022/06/13 09:54:47;;;;;;;;;;;20.00;53.40;;;;;;5144651;27;19923;-47
2022/06/13 09:57:16;;;;;;;;;;;21.10;52.70;;;;;;5164503;27;20076;-45
2022/06/13 09:59:45;;;;;;;;;;;21.80;50.80;;;;;;5170082;27;19960;-45
2022/06/13 10:02:29;;;;;;;;;;;20.70;51.60;;;;;;5164441;27;20426;-45
2022/06/13 10:05:02;;;;;;;;;;;20.30;51.20;;;;;;5164485;27;20062;-45
2022/06/13 10:07:31;;;;;;;;;;;19.90;50.80;;;;;;5169907;27;20519;-48
2022/06/13 10:10:32;;;;;;;;;;;19.70;51.60;;;;;;5142643;27;20521;-47
2022/06/13 10:13:02;;;;;;;;;;;20.60;53.20;;;;;;5057137;28;19924;-46
2022/06/13 10:15:28;;;;;;;;;;;21.70;50.70;;;;;;5149113;27;20033;-45
2022/06/13 10:17:59;;;;;;;;;;;21.00;50.80;;;;;;5163904;27;20482;-45
2022/06/13 10:20:39;;;;;;;;;;;20.30;51.10;;;;;;5164138;27;20033;-45
2022/06/13 10:23:14;;;;;;;;;;;20.10;50.90;;;;;;5169361;27;19975;-46
2022/06/13 10:25:59;;;;;;;;;;;19.90;50.30;;;;;;5164026;27;20346;-46
2022/06/13 10:28:31;;;;;;;;;;;20.20;52.50;;;;;;5163123;27;19937;-47
2022/06/13 10:31:06;;;;;;;;;;;21.30;51.50;;;;;;5167553;27;20018;-46
2022/06/13 10:33:35;;;;;;;;;;;21.70;49.80;;;;;;5163380;27;19981;-46
2022/06/13 10:36:00;;;;;;;;;;;20.60;50.70;;;;;;5163866;27;19956;-48
2022/06/13 10:38:35;;;;;;;;;;;20.30;50.30;;;;;;5169359;27;19931;-45
2022/06/13 10:41:01;;;;;;;;;;;19.90;50.50;;;;;;5145394;27;19927;-47
2022/06/13 10:43:27;;;;;;;;;;;20.30;52.20;;;;;;5163511;27;20258;-46
2022/06/13 10:45:53;;;;;;;;;;;21.30;51.00;;;;;;5148749;27;19927;-45
2022/06/13 10:48:19;;;;;;;;;;;21.70;49.20;;;;;;5161433;27;19923;-46
2022/06/13 10:50:46;;;;;;;;;;;20.40;50.60;;;;;;5149633;27;19926;-47
2022/06/13 10:53:15;;;;;;;;;;;20.30;49.90;;;;;;5162980;27;19978;-45
2022/06/13 10:55:41;;;;;;;;;;;19.80;50.30;;;;;;5163276;27;19923;-46
2022/06/13 10:58:27;;;;;;;;;;;20.50;51.90;;;;;;5168833;27;20481;-46
2022/06/13 11:01:02;;;;;;;;;;;21.40;50.10;;;;;;5162948;27;19971;-45
2022/06/13 11:03:28;;;;;;;;;;;21.10;49.50;;;;;;5163232;27;19930;-48
2022/06/13 11:05:56;;;;;;;;;;;20.40;50.00;;;;;;5166937;27;19923;-46
2022/06/13 11:08:22;;;;;;;;;;;20.00;50.50;;;;;;5143230;27;20310;-47
2022/06/13 11:11:18;;;;;;;;;;;19.80;49.80;;;;;;5142015;27;20277;-46
2022/06/13 11:13:51;;;;;;;;;;;20.30;52.10;;;;;;5167338;27;20381;-44
2022/06/13 11:24:39;;;;;;;;;;;19.90;50.40;;;;;;5166056;27;19923;-45
2022/06/13 11:30:08;;;;;;;;;;;20.30;51.60;;;;;;5164057;27;20388;-53
2022/06/13 11:32:34;;;;;;;;;;;21.50;49.50;;;;;;5168340;27;20059;-45
2022/06/13 11:34:59;;;;;;;;;;;21.40;48.80;;;;;;5162706;27;19922;-46
2022/06/13 11:37:25;;;;;;;;;;;20.40;50.10;;;;;;5168070;27;19978;-53
2022/06/13 11:39:52;;;;;;;;;;;20.10;49.90;;;;;;5163590;27;20013;-46
2022/06/13 11:42:19;;;;;;;;;;;19.80;49.70;;;;;;5161277;27;19944;-50
2022/06/13 11:44:47;;;;;;;;;;;20.30;51.60;;;;;;5166625;27;19933;-45
2022/06/13 11:47:13;;;;;;;;;;;21.40;49.60;;;;;;5142262;27;20023;-45
2022/06/13 11:49:39;;;;;;;;;;;21.60;48.40;;;;;;5162312;27;19965;-45
2022/06/13 11:52:11;;;;;;;;;;;20.30;50.20;;;;;;5168020;27;19933;-46
2022/06/13 11:54:41;;;;;;;;;;;20.20;49.60;;;;;;5162616;27;19967;-47
2022/06/13 11:57:17;;;;;;;;;;;20.00;49.40;;;;;;5163417;27;20245;-46
2022/06/13 11:59:44;;;;;;;;;;;20.40;51.40;;;;;;5153664;27;19923;-49
2022/06/13 12:02:17;;;;;;;;;;;21.60;49.10;;;;;;5145826;27;19922;-45
2022/06/13 12:04:44;;;;;;;;;;;21.50;48.40;;;;;;5166344;27;19922;-49
2022/06/13 12:07:19;;;;;;;;;;;20.50;49.70;;;;;;5172224;27;19933;-45
2022/06/13 12:09:50;;;;;;;;;;;20.20;49.70;;;;;;5166678;27;20031;-45
2022/06/13 12:12:16;;;;;;;;;;;19.80;49.60;;;;;;5171752;27;19927;-52
2022/06/13 12:14:41;;;;;;;;;;;20.00;50.50;;;;;;5167498;27;20019;-45
2022/06/13 12:17:10;;;;;;;;;;;20.90;50.30;;;;;;5147872;27;19926;-46
2022/06/13 12:19:41;;;;;;;;;;;21.80;48.10;;;;;;5169950;27;19954;-46
2022/06/13 12:22:22;;;;;;;;;;;20.90;49.00;;;;;;5146090;27;19948;-46
2022/06/13 12:24:57;;;;;;;;;;;20.30;49.30;;;;;;5147429;27;20047;-47
2022/06/13 12:27:29;;;;;;;;;;;20.00;49.20;;;;;;5152903;27;19929;-45
2022/06/13 12:29:57;;;;;;;;;;;20.20;50.70;;;;;;5166319;27;19981;-49
2022/06/13 12:32:28;;;;;;;;;;;21.30;48.90;;;;;;5166480;27;19927;-45
2022/06/13 12:35:13;;;;;;;;;;;21.50;47.60;;;;;;5171774;27;19967;-48
2022/06/13 12:37:45;;;;;;;;;;;20.30;49.50;;;;;;5164453;27;20417;-47
2022/06/13 12:40:30;;;;;;;;;;;20.00;49.30;;;;;;5164589;27;19927;-48
2022/06/13 12:43:10;;;;;;;;;;;19.70;49.50;;;;;;5171017;27;19978;-46
2022/06/13 12:45:55;;;;;;;;;;;20.30;50.30;;;;;;5147235;27;19923;-47
2022/06/13 12:48:24;;;;;;;;;;;21.40;48.30;;;;;;5166084;27;19927;-44
2022/06/13 12:50:58;;;;;;;;;;;21.30;47.50;;;;;;5152115;27;20100;-46
2022/06/13 12:53:24;;;;;;;;;;;20.30;49.00;;;;;;5147790;27;20017;-45
2022/06/13 12:55:53;;;;;;;;;;;20.00;49.00;;;;;;5164279;27;19956;-49
2022/06/13 12:58:31;;;;;;;;;;;19.70;49.70;;;;;;5169791;27;20021;-46
2022/06/13 13:01:16;;;;;;;;;;;20.80;49.20;;;;;;5165111;27;20014;-45
2022/06/13 13:03:41;;;;;;;;;;;21.80;46.80;;;;;;5165574;27;20334;-45
2022/06/13 13:06:10;;;;;;;;;;;20.80;48.10;;;;;;5171138;27;19929;-45
2022/06/13 13:08:45;;;;;;;;;;;20.30;48.50;;;;;;5164715;27;20010;-44
2022/06/13 13:11:21;;;;;;;;;;;20.20;48.20;;;;;;5146705;27;19927;-47
2022/06/13 13:13:54;;;;;;;;;;;19.90;49.20;;;;;;5169777;27;19929;-49
2022/06/13 13:16:29;;;;;;;;;;;20.90;48.60;;;;;;5145030;27;19923;-46
2022/06/13 13:19:07;;;;;;;;;;;21.90;46.20;;;;;;5164930;27;19931;-44
2022/06/13 13:21:38;;;;;;;;;;;20.80;47.80;;;;;;5170509;27;19966;-45
2022/06/13 13:24:07;;;;;;;;;;;20.10;48.60;;;;;;5146631;27;20350;-43
2022/06/13 13:27:02;;;;;;;;;;;19.80;48.80;;;;;;5146606;27;20281;-45
2022/06/13 13:29:33;;;;;;;;;;;19.90;49.80;;;;;;5170642;27;20017;-45
2022/06/13 13:32:00;;;;;;;;;;;21.30;47.30;;;;;;5164155;27;19998;-46
2022/06/13 13:34:33;;;;;;;;;;;21.60;46.30;;;;;;5163040;27;19925;-46
2022/06/13 13:37:02;;;;;;;;;;;20.70;47.90;;;;;;5151169;27;19974;-47
2022/06/13 13:39:35;;;;;;;;;;;20.20;48.20;;;;;;5164709;27;19953;-46
2022/06/13 13:42:03;;;;;;;;;;;19.80;48.60;;;;;;5165084;27;20413;-49
2022/06/13 13:44:30;;;;;;;;;;;20.80;48.70;;;;;;5151767;27;19929;-46
2022/06/13 13:47:02;;;;;;;;;;;21.80;46.10;;;;;;5164910;27;19923;-46
2022/06/13 13:49:28;;;;;;;;;;;20.80;47.40;;;;;;5164852;27;20465;-45
2022/06/13 13:51:58;;;;;;;;;;;20.30;47.90;;;;;;5148969;27;19923;-45
2022/06/13 13:54:29;;;;;;;;;;;19.90;48.30;;;;;;5163853;27;19930;-46
2022/06/13 13:56:55;;;;;;;;;;;19.80;48.70;;;;;;5147454;27;20005;-53
2022/06/13 13:59:23;;;;;;;;;;;20.90;48.00;;;;;;5169018;27;20067;-45
2022/06/13 14:02:04;;;;;;;;;;;21.80;45.60;;;;;;5164640;27;19929;-46
2022/06/13 14:04:48;;;;;;;;;;;21.10;46.80;;;;;;5170025;27;19930;-50
2022/06/13 14:07:16;;;;;;;;;;;20.30;47.90;;;;;;5169939;27;19923;-45
2022/06/13 14:09:44;;;;;;;;;;;20.20;47.40;;;;;;5162620;27;19934;-46
2022/06/13 14:12:12;;;;;;;;;;;19.60;48.30;;;;;;5148298;27;19927;-45
2022/06/13 14:14:47;;;;;;;;;;;20.80;48.10;;;;;;5163944;27;19923;-45
2022/06/13 14:17:20;;;;;;;;;;;21.80;45.60;;;;;;5164248;27;19929;-46
2022/06/13 14:19:50;;;;;;;;;;;20.90;46.70;;;;;;5169574;27;20025;-49
2022/06/13 14:22:16;;;;;;;;;;;20.10;47.90;;;;;;5164270;27;19922;-45
2022/06/13 14:25:03;;;;;;;;;;;20.00;47.80;;;;;;5164160;27;19930;-44
2022/06/13 14:27:28;;;;;;;;;;;19.90;47.80;;;;;;5168186;27;19977;-46
2022/06/13 14:31:03;;;;;;;;;;;20.80;47.80;;;;;;5162540;27;19934;-45
2022/06/13 14:32:40;;;;;;;;;;;21.80;45.40;;;;;;5163672;27;19931;-45
2022/06/13 14:35:12;;;;;;;;;;;21.00;46.60;;;;;;5169203;27;19926;-47
2022/06/13 14:37:43;;;;;;;;;;;20.30;47.50;;;;;;5164225;27;20400;-45
2022/06/13 14:40:12;;;;;;;;;;;20.00;47.80;;;;;;5164151;27;19922;-46
2022/06/13 14:42:57;;;;;;;;;;;20.10;48.50;;;;;;5165044;27;19923;-47
2022/06/13 14:45:23;;;;;;;;;;;21.20;46.80;;;;;;5163043;27;19922;-46
2022/06/13 14:48:09;;;;;;;;;;;21.80;45.00;;;;;;5161531;27;19930;-45
2022/06/13 14:50:45;;;;;;;;;;;20.60;47.20;;;;;;5168460;27;19933;-45
2022/06/13 14:53:30;;;;;;;;;;;20.10;47.60;;;;;;5163843;27;19923;-45
2022/06/13 14:56:08;;;;;;;;;;;20.00;47.40;;;;;;5163595;27;20323;-45